sensor_id;sensor_type;location;lat;lon;timestamp;P1;P2;P0
45440;PMS5003;31189;38.790;-77.084;2023-07-28T00:00:54;19;14;
45440;PMS5003;31189;38.790;-77.084;2023-07-28T00:03:19;17;17;
45440;PMS5003;31189;38.790;-77.084;2023-07-28T00:05:44;19;14;
45440;PMS5003;31189;38.790;-77.084;2023-07-28T00:08:10;20;18;
45440;PMS5003;31189;38.790;-77.084;2023-07-28T00:10:39;17;15;
45440;PMS5003;31189;38.790;-77.084;2023-07-28T00:13:01;21;18;
45440;PMS5003;31189;38.790;-77.084;2023-07-28T00:15:26;23;19;
45440;PMS5003;31189;38.790;-77.084;2023-07-28T00:17:52;17;16;
45440;PMS5003;31189;38.790;-77.084;2023-07-28T00:20:17;14;13;
45440;PMS5003;31189;38.790;-77.084;2023-07-28T00:22:43;15;14;
45440;PMS5003;31189;38.790;-77.084;2023-07-28T00:25:09;14;14;
45440;PMS5003;31189;38.790;-77.084;2023-07-28T00:27:34;17;16;
45440;PMS5003;31189;38.790;-77.084;2023-07-28T00:30:00;24;16;
45440;PMS5003;31189;38.790;-77.084;2023-07-28T00:32:26;14;14;
45440;PMS5003;31189;38.790;-77.084;2023-07-28T00:34:51;17;17;
45440;PMS5003;31189;38.790;-77.084;2023-07-28T00:37:17;17;16;
45440;PMS5003;31189;38.790;-77.084;2023-07-28T00:39:42;14;14;
45440;PMS5003;31189;38.790;-77.084;2023-07-28T00:42:08;20;16;
45440;PMS5003;31189;38.790;-77.084;2023-07-28T00:44:34;19;17;
45440;PMS5003;31189;38.790;-77.084;2023-07-28T00:47:00;16;14;
45440;PMS5003;31189;38.790;-77.084;2023-07-28T00:49:25;16;15;
45440;PMS5003;31189;38.790;-77.084;2023-07-28T00:51:51;17;16;
45440;PMS5003;31189;38.790;-77.084;2023-07-28T00:54:16;17;14;
45440;PMS5003;31189;38.790;-77.084;2023-07-28T00:56:42;15;15;
45440;PMS5003;31189;38.790;-77.084;2023-07-28T00:59:07;21;15;
45440;PMS5003;31189;38.790;-77.084;2023-07-28T01:01:33;26;13;
45440;PMS5003;31189;38.790;-77.084;2023-07-28T01:03:58;20;15;
45440;PMS5003;31189;38.790;-77.084;2023-07-28T01:06:26;17;16;
45440;PMS5003;31189;38.790;-77.084;2023-07-28T01:08:52;15;15;
45440;PMS5003;31189;38.790;-77.084;2023-07-28T01:11:15;23;14;
45440;PMS5003;31189;38.790;-77.084;2023-07-28T01:13:41;16;14;
45440;PMS5003;31189;38.790;-77.084;2023-07-28T01:16:07;14;14;
45440;PMS5003;31189;38.790;-77.084;2023-07-28T01:18:32;15;15;
45440;PMS5003;31189;38.790;-77.084;2023-07-28T01:20:57;22;16;
45440;PMS5003;31189;38.790;-77.084;2023-07-28T01:23:25;18;15;
45440;PMS5003;31189;38.790;-77.084;2023-07-28T01:25:50;17;15;
45440;PMS5003;31189;38.790;-77.084;2023-07-28T01:28:15;31;17;
45440;PMS5003;31189;38.790;-77.084;2023-07-28T01:30:39;19;16;
45440;PMS5003;31189;38.790;-77.084;2023-07-28T01:33:05;18;16;
45440;PMS5003;31189;38.790;-77.084;2023-07-28T01:35:30;19;16;
45440;PMS5003;31189;38.790;-77.084;2023-07-28T01:37:56;14;13;
45440;PMS5003;31189;38.790;-77.084;2023-07-28T01:40:21;28;17;
45440;PMS5003;31189;38.790;-77.084;2023-07-28T01:42:47;16;13;
45440;PMS5003;31189;38.790;-77.084;2023-07-28T01:45:12;12;11;
45440;PMS5003;31189;38.790;-77.084;2023-07-28T01:47:38;11;11;
45440;PMS5003;31189;38.790;-77.084;2023-07-28T01:50:04;18;15;
45440;PMS5003;31189;38.790;-77.084;2023-07-28T01:52:29;14;13;
45440;PMS5003;31189;38.790;-77.084;2023-07-28T01:54:55;16;13;
45440;PMS5003;31189;38.790;-77.084;2023-07-28T01:57:21;15;14;
45440;PMS5003;31189;38.790;-77.084;2023-07-28T01:59:46;14;14;
45440;PMS5003;31189;38.790;-77.084;2023-07-28T02:02:11;20;19;
45440;PMS5003;31189;38.790;-77.084;2023-07-28T02:04:37;18;16;
45440;PMS5003;31189;38.790;-77.084;2023-07-28T02:07:03;12;12;
45440;PMS5003;31189;38.790;-77.084;2023-07-28T02:09:28;13;13;
45440;PMS5003;31189;38.790;-77.084;2023-07-28T02:11:54;18;14;
45440;PMS5003;31189;38.790;-77.084;2023-07-28T02:14:20;17;14;
45440;PMS5003;31189;38.790;-77.084;2023-07-28T02:16:45;16;15;
45440;PMS5003;31189;38.790;-77.084;2023-07-28T02:19:11;17;15;
45440;PMS5003;31189;38.790;-77.084;2023-07-28T02:21:37;19;14;
45440;PMS5003;31189;38.790;-77.084;2023-07-28T02:24:03;16;15;
45440;PMS5003;31189;38.790;-77.084;2023-07-28T02:26:28;17;12;
45440;PMS5003;31189;38.790;-77.084;2023-07-28T02:28:53;13;13;
45440;PMS5003;31189;38.790;-77.084;2023-07-28T02:31:19;17;14;
45440;PMS5003;31189;38.790;-77.084;2023-07-28T02:33:44;17;13;
45440;PMS5003;31189;38.790;-77.084;2023-07-28T02:36:10;20;15;
45440;PMS5003;31189;38.790;-77.084;2023-07-28T02:38:36;17;15;
45440;PMS5003;31189;38.790;-77.084;2023-07-28T02:41:01;14;13;
45440;PMS5003;31189;38.790;-77.084;2023-07-28T02:43:27;25;15;
45440;PMS5003;31189;38.790;-77.084;2023-07-28T02:45:53;16;15;
45440;PMS5003;31189;38.790;-77.084;2023-07-28T02:48:18;14;14;
45440;PMS5003;31189;38.790;-77.084;2023-07-28T02:50:45;14;13;
45440;PMS5003;31189;38.790;-77.084;2023-07-28T02:53:09;17;16;
45440;PMS5003;31189;38.790;-77.084;2023-07-28T02:58:00;24;14;
45440;PMS5003;31189;38.790;-77.084;2023-07-28T03:00:26;15;13;
45440;PMS5003;31189;38.790;-77.084;2023-07-28T03:02:51;14;14;
45440;PMS5003;31189;38.790;-77.084;2023-07-28T03:05:16;24;15;
45440;PMS5003;31189;38.790;-77.084;2023-07-28T03:07:42;15;14;
45440;PMS5003;31189;38.790;-77.084;2023-07-28T03:10:08;16;15;
45440;PMS5003;31189;38.790;-77.084;2023-07-28T03:12:33;15;14;
45440;PMS5003;31189;38.790;-77.084;2023-07-28T03:14:58;14;14;
45440;PMS5003;31189;38.790;-77.084;2023-07-28T03:17:24;20;16;
45440;PMS5003;31189;38.790;-77.084;2023-07-28T03:19:49;15;13;
45440;PMS5003;31189;38.790;-77.084;2023-07-28T03:22:15;16;11;
45440;PMS5003;31189;38.790;-77.084;2023-07-28T03:24:41;14;12;
45440;PMS5003;31189;38.790;-77.084;2023-07-28T03:27:06;16;15;
45440;PMS5003;31189;38.790;-77.084;2023-07-28T03:29:32;16;15;
45440;PMS5003;31189;38.790;-77.084;2023-07-28T03:31:57;17;15;
45440;PMS5003;31189;38.790;-77.084;2023-07-28T03:34:23;15;15;
45440;PMS5003;31189;38.790;-77.084;2023-07-28T03:36:48;15;14;
45440;PMS5003;31189;38.790;-77.084;2023-07-28T03:39:14;15;14;
45440;PMS5003;31189;38.790;-77.084;2023-07-28T03:41:40;17;16;
45440;PMS5003;31189;38.790;-77.084;2023-07-28T03:44:05;18;14;
45440;PMS5003;31189;38.790;-77.084;2023-07-28T03:46:31;16;15;
45440;PMS5003;31189;38.790;-77.084;2023-07-28T03:48:56;19;17;
45440;PMS5003;31189;38.790;-77.084;2023-07-28T03:51:21;17;17;
45440;PMS5003;31189;38.790;-77.084;2023-07-28T03:53:47;14;14;
45440;PMS5003;31189;38.790;-77.084;2023-07-28T03:56:13;16;15;
45440;PMS5003;31189;38.790;-77.084;2023-07-28T03:58:38;18;18;
45440;PMS5003;31189;38.790;-77.084;2023-07-28T04:01:04;21;15;
45440;PMS5003;31189;38.790;-77.084;2023-07-28T04:03:29;20;17;
45440;PMS5003;31189;38.790;-77.084;2023-07-28T04:05:54;17;15;
45440;PMS5003;31189;38.790;-77.084;2023-07-28T04:08:20;15;13;
45440;PMS5003;31189;38.790;-77.084;2023-07-28T04:10:46;17;16;
45440;PMS5003;31189;38.790;-77.084;2023-07-28T04:13:12;16;16;
45440;PMS5003;31189;38.790;-77.084;2023-07-28T04:15:37;14;14;
45440;PMS5003;31189;38.790;-77.084;2023-07-28T04:18:03;15;14;
45440;PMS5003;31189;38.790;-77.084;2023-07-28T04:20:28;18;15;
45440;PMS5003;31189;38.790;-77.084;2023-07-28T04:22:54;20;17;
45440;PMS5003;31189;38.790;-77.084;2023-07-28T04:25:19;29;17;
45440;PMS5003;31189;38.790;-77.084;2023-07-28T04:27:45;12;12;
45440;PMS5003;31189;38.790;-77.084;2023-07-28T04:30:11;16;15;
45440;PMS5003;31189;38.790;-77.084;2023-07-28T04:32:36;18;17;
45440;PMS5003;31189;38.790;-77.084;2023-07-28T04:35:02;16;15;
45440;PMS5003;31189;38.790;-77.084;2023-07-28T04:37:27;18;16;
45440;PMS5003;31189;38.790;-77.084;2023-07-28T04:39:52;20;14;
45440;PMS5003;31189;38.790;-77.084;2023-07-28T04:42:18;15;14;
45440;PMS5003;31189;38.790;-77.084;2023-07-28T04:44:44;17;15;
45440;PMS5003;31189;38.790;-77.084;2023-07-28T04:47:10;20;17;
45440;PMS5003;31189;38.790;-77.084;2023-07-28T04:49:35;29;18;
45440;PMS5003;31189;38.790;-77.084;2023-07-28T04:52:00;19;17;
45440;PMS5003;31189;38.790;-77.084;2023-07-28T04:54:26;21;19;
45440;PMS5003;31189;38.790;-77.084;2023-07-28T04:56:51;15;13;
45440;PMS5003;31189;38.790;-77.084;2023-07-28T04:59:17;19;19;
45440;PMS5003;31189;38.790;-77.084;2023-07-28T05:01:42;19;16;
45440;PMS5003;31189;38.790;-77.084;2023-07-28T05:04:07;15;14;
45440;PMS5003;31189;38.790;-77.084;2023-07-28T05:06:33;15;15;
45440;PMS5003;31189;38.790;-77.084;2023-07-28T05:08:58;14;14;
45440;PMS5003;31189;38.790;-77.084;2023-07-28T05:11:23;22;16;
45440;PMS5003;31189;38.790;-77.084;2023-07-28T05:13:49;18;17;
45440;PMS5003;31189;38.790;-77.084;2023-07-28T05:16:15;19;17;
45440;PMS5003;31189;38.790;-77.084;2023-07-28T05:18:40;17;14;
45440;PMS5003;31189;38.790;-77.084;2023-07-28T05:21:06;21;18;
45440;PMS5003;31189;38.790;-77.084;2023-07-28T05:23:31;28;18;
45440;PMS5003;31189;38.790;-77.084;2023-07-28T05:25:57;16;14;
45440;PMS5003;31189;38.790;-77.084;2023-07-28T05:28:22;16;15;
45440;PMS5003;31189;38.790;-77.084;2023-07-28T05:30:48;18;15;
45440;PMS5003;31189;38.790;-77.084;2023-07-28T05:33:14;21;16;
45440;PMS5003;31189;38.790;-77.084;2023-07-28T05:35:39;20;16;
45440;PMS5003;31189;38.790;-77.084;2023-07-28T05:38:05;21;17;
45440;PMS5003;31189;38.790;-77.084;2023-07-28T05:40:30;19;16;
45440;PMS5003;31189;38.790;-77.084;2023-07-28T05:42:55;27;16;
45440;PMS5003;31189;38.790;-77.084;2023-07-28T05:45:20;21;17;
45440;PMS5003;31189;38.790;-77.084;2023-07-28T05:47:46;18;17;
45440;PMS5003;31189;38.790;-77.084;2023-07-28T05:50:11;21;16;
45440;PMS5003;31189;38.790;-77.084;2023-07-28T05:52:37;17;16;
45440;PMS5003;31189;38.790;-77.084;2023-07-28T05:55:03;18;16;
45440;PMS5003;31189;38.790;-77.084;2023-07-28T05:57:28;29;16;
45440;PMS5003;31189;38.790;-77.084;2023-07-28T05:59:53;20;15;
45440;PMS5003;31189;38.790;-77.084;2023-07-28T06:02:19;25;14;
45440;PMS5003;31189;38.790;-77.084;2023-07-28T06:04:44;21;16;
45440;PMS5003;31189;38.790;-77.084;2023-07-28T06:07:10;19;16;
45440;PMS5003;31189;38.790;-77.084;2023-07-28T06:09:35;17;15;
45440;PMS5003;31189;38.790;-77.084;2023-07-28T06:12:01;22;18;
45440;PMS5003;31189;38.790;-77.084;2023-07-28T06:14:27;20;17;
45440;PMS5003;31189;38.790;-77.084;2023-07-28T06:16:52;19;15;
45440;PMS5003;31189;38.790;-77.084;2023-07-28T06:19:18;19;18;
45440;PMS5003;31189;38.790;-77.084;2023-07-28T06:21:44;14;14;
45440;PMS5003;31189;38.790;-77.084;2023-07-28T06:24:09;19;17;
45440;PMS5003;31189;38.790;-77.084;2023-07-28T06:26:35;17;15;
45440;PMS5003;31189;38.790;-77.084;2023-07-28T06:29:00;21;15;
45440;PMS5003;31189;38.790;-77.084;2023-07-28T06:31:26;18;15;
45440;PMS5003;31189;38.790;-77.084;2023-07-28T06:33:52;23;18;
45440;PMS5003;31189;38.790;-77.084;2023-07-28T06:36:17;26;16;
45440;PMS5003;31189;38.790;-77.084;2023-07-28T06:38:42;30;15;
45440;PMS5003;31189;38.790;-77.084;2023-07-28T06:41:08;27;17;
45440;PMS5003;31189;38.790;-77.084;2023-07-28T06:43:33;19;18;
45440;PMS5003;31189;38.790;-77.084;2023-07-28T06:45:59;20;16;
45440;PMS5003;31189;38.790;-77.084;2023-07-28T06:48:25;27;19;
45440;PMS5003;31189;38.790;-77.084;2023-07-28T06:50:50;20;17;
45440;PMS5003;31189;38.790;-77.084;2023-07-28T06:53:15;19;17;
45440;PMS5003;31189;38.790;-77.084;2023-07-28T06:55:42;17;15;
45440;PMS5003;31189;38.790;-77.084;2023-07-28T06:58:07;16;16;
45440;PMS5003;31189;38.790;-77.084;2023-07-28T07:00:32;18;17;
45440;PMS5003;31189;38.790;-77.084;2023-07-28T07:02:58;16;14;
45440;PMS5003;31189;38.790;-77.084;2023-07-28T07:05:23;17;16;
45440;PMS5003;31189;38.790;-77.084;2023-07-28T07:07:48;18;15;
45440;PMS5003;31189;38.790;-77.084;2023-07-28T07:10:14;17;16;
45440;PMS5003;31189;38.790;-77.084;2023-07-28T07:12:39;17;16;
45440;PMS5003;31189;38.790;-77.084;2023-07-28T07:15:05;21;17;
45440;PMS5003;31189;38.790;-77.084;2023-07-28T07:17:30;17;17;
45440;PMS5003;31189;38.790;-77.084;2023-07-28T07:19:56;17;15;
45440;PMS5003;31189;38.790;-77.084;2023-07-28T07:22:22;23;18;
45440;PMS5003;31189;38.790;-77.084;2023-07-28T07:24:47;20;18;
45440;PMS5003;31189;38.790;-77.084;2023-07-28T07:27:12;23;17;
45440;PMS5003;31189;38.790;-77.084;2023-07-28T07:29:38;18;16;
45440;PMS5003;31189;38.790;-77.084;2023-07-28T07:32:04;15;14;
45440;PMS5003;31189;38.790;-77.084;2023-07-28T07:34:29;21;16;
45440;PMS5003;31189;38.790;-77.084;2023-07-28T07:36:55;21;15;
45440;PMS5003;31189;38.790;-77.084;2023-07-28T07:39:20;18;18;
45440;PMS5003;31189;38.790;-77.084;2023-07-28T07:41:45;21;17;
45440;PMS5003;31189;38.790;-77.084;2023-07-28T07:44:11;16;15;
45440;PMS5003;31189;38.790;-77.084;2023-07-28T07:46:36;17;15;
45440;PMS5003;31189;38.790;-77.084;2023-07-28T07:49:02;18;18;
45440;PMS5003;31189;38.790;-77.084;2023-07-28T07:51:28;17;16;
45440;PMS5003;31189;38.790;-77.084;2023-07-28T07:53:53;21;15;
45440;PMS5003;31189;38.790;-77.084;2023-07-28T07:56:19;18;16;
45440;PMS5003;31189;38.790;-77.084;2023-07-28T07:58:44;22;16;
45440;PMS5003;31189;38.790;-77.084;2023-07-28T08:01:10;20;15;
45440;PMS5003;31189;38.790;-77.084;2023-07-28T08:03:35;17;15;
45440;PMS5003;31189;38.790;-77.084;2023-07-28T08:06:00;22;18;
45440;PMS5003;31189;38.790;-77.084;2023-07-28T08:08:25;16;14;
45440;PMS5003;31189;38.790;-77.084;2023-07-28T08:10:51;24;13;
45440;PMS5003;31189;38.790;-77.084;2023-07-28T08:13:16;19;17;
45440;PMS5003;31189;38.790;-77.084;2023-07-28T08:15:42;22;19;
45440;PMS5003;31189;38.790;-77.084;2023-07-28T08:18:08;19;18;
45440;PMS5003;31189;38.790;-77.084;2023-07-28T08:20:33;31;18;
45440;PMS5003;31189;38.790;-77.084;2023-07-28T08:22:59;17;16;
45440;PMS5003;31189;38.790;-77.084;2023-07-28T08:25:24;26;17;
45440;PMS5003;31189;38.790;-77.084;2023-07-28T08:27:49;19;17;
45440;PMS5003;31189;38.790;-77.084;2023-07-28T08:30:15;25;19;
45440;PMS5003;31189;38.790;-77.084;2023-07-28T08:32:40;21;18;
45440;PMS5003;31189;38.790;-77.084;2023-07-28T08:35:06;20;16;
45440;PMS5003;31189;38.790;-77.084;2023-07-28T08:37:31;22;20;
45440;PMS5003;31189;38.790;-77.084;2023-07-28T08:39:57;17;17;
45440;PMS5003;31189;38.790;-77.084;2023-07-28T08:42:22;20;19;
45440;PMS5003;31189;38.790;-77.084;2023-07-28T08:44:48;16;15;
45440;PMS5003;31189;38.790;-77.084;2023-07-28T08:47:14;19;17;
45440;PMS5003;31189;38.790;-77.084;2023-07-28T08:49:39;17;16;
45440;PMS5003;31189;38.790;-77.084;2023-07-28T08:52:04;20;14;
45440;PMS5003;31189;38.790;-77.084;2023-07-28T08:54:30;21;20;
45440;PMS5003;31189;38.790;-77.084;2023-07-28T08:56:57;20;18;
45440;PMS5003;31189;38.790;-77.084;2023-07-28T08:59:21;22;19;
45440;PMS5003;31189;38.790;-77.084;2023-07-28T09:01:46;21;20;
45440;PMS5003;31189;38.790;-77.084;2023-07-28T09:04:11;30;21;
45440;PMS5003;31189;38.790;-77.084;2023-07-28T09:06:37;22;19;
45440;PMS5003;31189;38.790;-77.084;2023-07-28T09:09:02;24;15;
45440;PMS5003;31189;38.790;-77.084;2023-07-28T09:11:28;21;18;
45440;PMS5003;31189;38.790;-77.084;2023-07-28T09:13:54;19;18;
45440;PMS5003;31189;38.790;-77.084;2023-07-28T09:16:19;18;18;
45440;PMS5003;31189;38.790;-77.084;2023-07-28T09:18:44;21;20;
45440;PMS5003;31189;38.790;-77.084;2023-07-28T09:23:35;25;19;
45440;PMS5003;31189;38.790;-77.084;2023-07-28T09:26:01;26;18;
45440;PMS5003;31189;38.790;-77.084;2023-07-28T09:30:52;20;20;
45440;PMS5003;31189;38.790;-77.084;2023-07-28T09:35:48;21;17;
45440;PMS5003;31189;38.790;-77.084;2023-07-28T09:38:08;19;17;
45440;PMS5003;31189;38.790;-77.084;2023-07-28T09:40:34;23;19;
45440;PMS5003;31189;38.790;-77.084;2023-07-28T09:42:59;21;17;
45440;PMS5003;31189;38.790;-77.084;2023-07-28T09:45:25;24;20;
45440;PMS5003;31189;38.790;-77.084;2023-07-28T09:47:50;22;19;
45440;PMS5003;31189;38.790;-77.084;2023-07-28T09:50:16;21;18;
45440;PMS5003;31189;38.790;-77.084;2023-07-28T09:52:42;21;17;
45440;PMS5003;31189;38.790;-77.084;2023-07-28T09:55:07;24;20;
45440;PMS5003;31189;38.790;-77.084;2023-07-28T09:57:31;22;19;
45440;PMS5003;31189;38.790;-77.084;2023-07-28T09:59:56;20;17;
45440;PMS5003;31189;38.790;-77.084;2023-07-28T10:02:22;17;15;
45440;PMS5003;31189;38.790;-77.084;2023-07-28T10:04:47;16;16;
45440;PMS5003;31189;38.790;-77.084;2023-07-28T10:07:12;23;19;
45440;PMS5003;31189;38.790;-77.084;2023-07-28T10:09:38;25;19;
45440;PMS5003;31189;38.790;-77.084;2023-07-28T10:12:04;22;19;
45440;PMS5003;31189;38.790;-77.084;2023-07-28T10:14:29;22;21;
45440;PMS5003;31189;38.790;-77.084;2023-07-28T10:16:53;29;18;
45440;PMS5003;31189;38.790;-77.084;2023-07-28T10:19:19;20;20;
45440;PMS5003;31189;38.790;-77.084;2023-07-28T10:21:44;32;19;
45440;PMS5003;31189;38.790;-77.084;2023-07-28T10:24:09;25;19;
45440;PMS5003;31189;38.790;-77.084;2023-07-28T10:26:35;20;20;
45440;PMS5003;31189;38.790;-77.084;2023-07-28T10:31:29;31;17;
45440;PMS5003;31189;38.790;-77.084;2023-07-28T10:33:52;23;21;
45440;PMS5003;31189;38.790;-77.084;2023-07-28T10:36:18;19;17;
45440;PMS5003;31189;38.790;-77.084;2023-07-28T10:38:43;23;22;
45440;PMS5003;31189;38.790;-77.084;2023-07-28T10:41:09;22;21;
45440;PMS5003;31189;38.790;-77.084;2023-07-28T10:43:33;23;20;
45440;PMS5003;31189;38.790;-77.084;2023-07-28T10:45:59;20;19;
45440;PMS5003;31189;38.790;-77.084;2023-07-28T10:48:24;21;17;
45440;PMS5003;31189;38.790;-77.084;2023-07-28T10:50:50;24;19;
45440;PMS5003;31189;38.790;-77.084;2023-07-28T10:53:15;20;19;
45440;PMS5003;31189;38.790;-77.084;2023-07-28T10:55:41;25;22;
45440;PMS5003;31189;38.790;-77.084;2023-07-28T10:58:07;17;17;
45440;PMS5003;31189;38.790;-77.084;2023-07-28T11:00:32;30;20;
45440;PMS5003;31189;38.790;-77.084;2023-07-28T11:02:57;20;19;
45440;PMS5003;31189;38.790;-77.084;2023-07-28T11:05:23;26;22;
45440;PMS5003;31189;38.790;-77.084;2023-07-28T11:07:48;21;21;
45440;PMS5003;31189;38.790;-77.084;2023-07-28T11:10:13;20;17;
45440;PMS5003;31189;38.790;-77.084;2023-07-28T11:12:40;31;20;
45440;PMS5003;31189;38.790;-77.084;2023-07-28T11:15:05;21;19;
45440;PMS5003;31189;38.790;-77.084;2023-07-28T11:17:30;27;23;
45440;PMS5003;31189;38.790;-77.084;2023-07-28T11:19:55;23;19;
45440;PMS5003;31189;38.790;-77.084;2023-07-28T11:22:20;28;19;
45440;PMS5003;31189;38.790;-77.084;2023-07-28T11:24:45;41;27;
45440;PMS5003;31189;38.790;-77.084;2023-07-28T11:27:11;28;20;
45440;PMS5003;31189;38.790;-77.084;2023-07-28T11:29:36;23;22;
45440;PMS5003;31189;38.790;-77.084;2023-07-28T11:32:01;26;25;
45440;PMS5003;31189;38.790;-77.084;2023-07-28T11:34:27;23;22;
45440;PMS5003;31189;38.790;-77.084;2023-07-28T11:36:52;28;23;
45440;PMS5003;31189;38.790;-77.084;2023-07-28T11:39:17;33;20;
45440;PMS5003;31189;38.790;-77.084;2023-07-28T11:41:43;25;24;
45440;PMS5003;31189;38.790;-77.084;2023-07-28T11:44:08;35;23;
45440;PMS5003;31189;38.790;-77.084;2023-07-28T11:46:34;27;25;
45440;PMS5003;31189;38.790;-77.084;2023-07-28T11:51:24;27;23;
45440;PMS5003;31189;38.790;-77.084;2023-07-28T11:53:50;37;27;
45440;PMS5003;31189;38.790;-77.084;2023-07-28T11:56:16;30;27;
45440;PMS5003;31189;38.790;-77.084;2023-07-28T11:58:41;33;26;
45440;PMS5003;31189;38.790;-77.084;2023-07-28T12:01:07;36;26;
45440;PMS5003;31189;38.790;-77.084;2023-07-28T12:03:32;34;29;
45440;PMS5003;31189;38.790;-77.084;2023-07-28T12:06:02;41;32;
45440;PMS5003;31189;38.790;-77.084;2023-07-28T12:13:14;32;29;
45440;PMS5003;31189;38.790;-77.084;2023-07-28T12:15:40;34;30;
45440;PMS5003;31189;38.790;-77.084;2023-07-28T12:18:07;41;31;
45440;PMS5003;31189;38.790;-77.084;2023-07-28T12:20:33;45;33;
45440;PMS5003;31189;38.790;-77.084;2023-07-28T12:22:56;46;33;
45440;PMS5003;31189;38.790;-77.084;2023-07-28T12:25:22;32;29;
45440;PMS5003;31189;38.790;-77.084;2023-07-28T12:27:48;44;32;
45440;PMS5003;31189;38.790;-77.084;2023-07-28T12:30:13;35;34;
45440;PMS5003;31189;38.790;-77.084;2023-07-28T12:32:39;32;29;
45440;PMS5003;31189;38.790;-77.084;2023-07-28T12:35:05;41;34;
45440;PMS5003;31189;38.790;-77.084;2023-07-28T12:37:29;29;29;
45440;PMS5003;31189;38.790;-77.084;2023-07-28T12:39:55;33;32;
45440;PMS5003;31189;38.790;-77.084;2023-07-28T12:42:20;40;32;
45440;PMS5003;31189;38.790;-77.084;2023-07-28T12:47:12;35;32;
45440;PMS5003;31189;38.790;-77.084;2023-07-28T12:52:04;33;33;
45440;PMS5003;31189;38.790;-77.084;2023-07-28T12:54:27;32;31;
45440;PMS5003;31189;38.790;-77.084;2023-07-28T12:56:53;31;29;
45440;PMS5003;31189;38.790;-77.084;2023-07-28T12:59:18;30;26;
45440;PMS5003;31189;38.790;-77.084;2023-07-28T13:01:44;32;29;
45440;PMS5003;31189;38.790;-77.084;2023-07-28T13:04:09;44;30;
45440;PMS5003;31189;38.790;-77.084;2023-07-28T13:06:34;28;28;
45440;PMS5003;31189;38.790;-77.084;2023-07-28T13:09:00;46;32;
45440;PMS5003;31189;38.790;-77.084;2023-07-28T13:11:25;40;28;
45440;PMS5003;31189;38.790;-77.084;2023-07-28T13:13:51;46;34;
45440;PMS5003;31189;38.790;-77.084;2023-07-28T13:16:16;36;29;
45440;PMS5003;31189;38.790;-77.084;2023-07-28T13:18:42;39;28;
45440;PMS5003;31189;38.790;-77.084;2023-07-28T13:21:07;32;27;
45440;PMS5003;31189;38.790;-77.084;2023-07-28T13:23:32;28;27;
45440;PMS5003;31189;38.790;-77.084;2023-07-28T13:25:57;30;30;
45440;PMS5003;31189;38.790;-77.084;2023-07-28T13:28:23;40;26;
45440;PMS5003;31189;38.790;-77.084;2023-07-28T13:30:49;33;26;
45440;PMS5003;31189;38.790;-77.084;2023-07-28T13:33:15;24;23;
45440;PMS5003;31189;38.790;-77.084;2023-07-28T13:35:40;32;25;
45440;PMS5003;31189;38.790;-77.084;2023-07-28T13:38:06;28;24;
45440;PMS5003;31189;38.790;-77.084;2023-07-28T13:40:31;39;28;
45440;PMS5003;31189;38.790;-77.084;2023-07-28T13:42:57;28;27;
45440;PMS5003;31189;38.790;-77.084;2023-07-28T13:45:22;34;27;
45440;PMS5003;31189;38.790;-77.084;2023-07-28T13:47:48;25;25;
45440;PMS5003;31189;38.790;-77.084;2023-07-28T13:50:13;24;20;
45440;PMS5003;31189;38.790;-77.084;2023-07-28T13:52:38;27;25;
45440;PMS5003;31189;38.790;-77.084;2023-07-28T13:55:04;40;27;
45440;PMS5003;31189;38.790;-77.084;2023-07-28T13:57:29;38;30;
45440;PMS5003;31189;38.790;-77.084;2023-07-28T13:59:55;28;26;
45440;PMS5003;31189;38.790;-77.084;2023-07-28T14:02:20;31;27;
45440;PMS5003;31189;38.790;-77.084;2023-07-28T14:04:46;26;25;
45440;PMS5003;31189;38.790;-77.084;2023-07-28T14:07:11;28;26;
45440;PMS5003;31189;38.790;-77.084;2023-07-28T14:09:37;26;26;
45440;PMS5003;31189;38.790;-77.084;2023-07-28T14:12:02;33;27;
45440;PMS5003;31189;38.790;-77.084;2023-07-28T14:14:28;33;29;
45440;PMS5003;31189;38.790;-77.084;2023-07-28T14:16:53;30;29;
45440;PMS5003;31189;38.790;-77.084;2023-07-28T14:19:19;32;29;
45440;PMS5003;31189;38.790;-77.084;2023-07-28T14:21:44;27;24;
45440;PMS5003;31189;38.790;-77.084;2023-07-28T14:24:10;27;27;
45440;PMS5003;31189;38.790;-77.084;2023-07-28T14:26:35;38;28;
45440;PMS5003;31189;38.790;-77.084;2023-07-28T14:29:00;32;28;
45440;PMS5003;31189;38.790;-77.084;2023-07-28T14:31:26;26;26;
45440;PMS5003;31189;38.790;-77.084;2023-07-28T14:33:51;38;30;
45440;PMS5003;31189;38.790;-77.084;2023-07-28T14:36:17;31;29;
45440;PMS5003;31189;38.790;-77.084;2023-07-28T14:38:42;32;29;
45440;PMS5003;31189;38.790;-77.084;2023-07-28T14:41:07;32;26;
45440;PMS5003;31189;38.790;-77.084;2023-07-28T14:43:33;31;27;
45440;PMS5003;31189;38.790;-77.084;2023-07-28T14:45:58;30;29;
45440;PMS5003;31189;38.790;-77.084;2023-07-28T14:48:23;27;26;
45440;PMS5003;31189;38.790;-77.084;2023-07-28T14:50:49;29;25;
45440;PMS5003;31189;38.790;-77.084;2023-07-28T14:55:40;23;23;
45440;PMS5003;31189;38.790;-77.084;2023-07-28T14:58:05;27;27;
45440;PMS5003;31189;38.790;-77.084;2023-07-28T15:00:31;27;24;
45440;PMS5003;31189;38.790;-77.084;2023-07-28T15:02:56;25;20;
45440;PMS5003;31189;38.790;-77.084;2023-07-28T15:05:21;27;22;
45440;PMS5003;31189;38.790;-77.084;2023-07-28T15:07:47;25;24;
45440;PMS5003;31189;38.790;-77.084;2023-07-28T15:10:12;43;24;
45440;PMS5003;31189;38.790;-77.084;2023-07-28T15:12:38;23;23;
45440;PMS5003;31189;38.790;-77.084;2023-07-28T15:15:04;36;22;
45440;PMS5003;31189;38.790;-77.084;2023-07-28T15:17:29;29;24;
45440;PMS5003;31189;38.790;-77.084;2023-07-28T15:19:55;25;23;
45440;PMS5003;31189;38.790;-77.084;2023-07-28T15:22:21;32;25;
45440;PMS5003;31189;38.790;-77.084;2023-07-28T15:24:46;28;24;
45440;PMS5003;31189;38.790;-77.084;2023-07-28T15:27:11;25;21;
45440;PMS5003;31189;38.790;-77.084;2023-07-28T15:29:37;27;23;
45440;PMS5003;31189;38.790;-77.084;2023-07-28T15:32:03;28;25;
45440;PMS5003;31189;38.790;-77.084;2023-07-28T15:34:28;24;22;
45440;PMS5003;31189;38.790;-77.084;2023-07-28T15:36:54;25;25;
45440;PMS5003;31189;38.790;-77.084;2023-07-28T15:39:19;32;27;
45440;PMS5003;31189;38.790;-77.084;2023-07-28T15:41:45;31;23;
45440;PMS5003;31189;38.790;-77.084;2023-07-28T15:44:10;28;25;
45440;PMS5003;31189;38.790;-77.084;2023-07-28T15:46:35;29;24;
45440;PMS5003;31189;38.790;-77.084;2023-07-28T15:49:01;29;24;
45440;PMS5003;31189;38.790;-77.084;2023-07-28T15:51:27;26;25;
45440;PMS5003;31189;38.790;-77.084;2023-07-28T15:53:52;36;24;
45440;PMS5003;31189;38.790;-77.084;2023-07-28T15:56:18;26;24;
45440;PMS5003;31189;38.790;-77.084;2023-07-28T15:58:43;27;27;
45440;PMS5003;31189;38.790;-77.084;2023-07-28T16:01:09;30;24;